Time;durP1;ratioP1;P1;durP2;ratioP2;P2;SDS_P1;SDS_P2;PMS_P1;PMS_P2;Temp;Humidity;BMP_temperature;BMP_pressure;BME280_temperature;BME280_humidity;BME280_pressure;Samples;Min_cycle;Max_cycle;Signal;HPM_P1;HPM_P2
2022/01/24 00:02:47;;;;;;;35.60;17.60;;;;;;;-4.62;78.00;98502.28;10414376;28;20115;-60
2022/01/24 00:07:46;;;;;;;29.77;16.55;;;;;;;-4.48;78.73;98522.63;10414870;28;20055;-60
2022/01/24 00:18:26;;;;;;;27.02;15.60;;;;;;;-4.82;78.28;98462.94;10363393;28;20483;-60
2022/01/24 00:28:42;;;;;;;25.23;14.50;;;;;;;-4.43;77.91;98517.09;10373943;28;20083;-60
2022/01/24 00:33:41;;;;;;;27.15;16.38;;;;;;;-4.55;77.57;98485.00;10373444;28;20483;-60
2022/01/24 00:38:40;;;;;;;29.63;15.27;;;;;;;-4.48;77.56;98492.25;10395933;28;20096;-60
2022/01/24 00:49:23;;;;;;;25.23;14.45;;;;;;;-4.28;77.58;98556.94;10419858;28;20478;-60
2022/01/24 00:59:26;;;;;;;22.45;11.82;;;;;;;-4.45;77.71;98548.19;10421833;28;20064;-60
2022/01/24 01:04:33;;;;;;;23.60;13.40;;;;;;;-4.45;78.46;98558.31;10421487;28;20094;-60
2022/01/24 01:20:09;;;;;;;43.20;24.35;;;;;;;-4.56;78.64;98571.88;10379626;28;20056;-60
2022/01/24 01:25:09;;;;;;;42.00;23.65;;;;;;;-4.88;80.14;98557.81;10379816;28;20067;-60
2022/01/24 01:30:15;;;;;;;;;;;;;;;-4.88;79.59;98562.88;10379634;28;20072;-60
2022/01/24 01:56:07;;;;;;;31.75;17.83;;;;;;;-5.44;80.55;98491.31;10419854;28;20490;-60
2022/01/24 02:01:07;;;;;;;33.55;19.42;;;;;;;-5.01;81.11;98567.78;10419449;28;20060;-60
2022/01/24 02:06:05;;;;;;;26.33;15.20;;;;;;;-5.07;80.01;98569.13;10419189;28;20080;-60
2022/01/24 02:11:04;;;;;;;31.92;17.75;;;;;;;-5.01;79.86;98572.88;10418980;28;20100;-60
2022/01/24 02:16:16;;;;;;;27.98;16.15;;;;;;;-4.95;80.13;98574.19;10418724;28;20060;-60
2022/01/24 02:21:27;;;;;;;27.92;15.02;;;;;;;-4.96;79.98;98576.59;10417420;28;20064;-60
2022/01/24 02:26:27;;;;;;;26.88;15.07;;;;;;;-5.21;79.32;98559.66;10418173;28;20052;-60
2022/01/24 02:31:43;;;;;;;;;;;;;;;-5.20;79.24;98586.69;10418909;28;20509;-60
2022/01/24 02:36:42;;;;;;;26.30;14.85;;;;;;;-6.00;79.60;98469.53;10417946;28;20412;-60
2022/01/24 02:52:13;;;;;;;18.23;9.85;;;;;;;-5.63;77.24;98603.75;10417362;28;20063;-60
2022/01/24 02:57:12;;;;;;;18.30;9.80;;;;;;;-5.79;76.56;98595.75;10416634;28;20580;-60
2022/01/24 03:02:11;;;;;;;21.98;12.35;;;;;;;-5.75;76.66;98603.69;10416663;28;20562;-60
2022/01/24 03:07:10;;;;;;;28.50;14.95;;;;;;;-5.58;76.69;98632.78;10416964;28;20017;-60
2022/01/24 03:12:13;;;;;;;24.00;12.02;;;;;;;-5.69;76.94;98642.06;10416539;28;20393;-60
2022/01/24 03:17:12;;;;;;;19.40;13.07;;;;;;;-5.62;76.47;98643.41;10416819;28;20083;-60
2022/01/24 03:22:11;;;;;;;21.40;12.32;;;;;;;-6.17;75.52;98558.34;10417747;28;20495;-58
2022/01/24 03:27:10;;;;;;;18.42;10.20;;;;;;;-5.51;74.61;98655.22;10415875;28;20418;-58
2022/01/24 03:32:09;;;;;;;23.25;13.00;;;;;;;-5.46;75.40;98650.53;10416165;28;20423;-58
2022/01/24 03:37:08;;;;;;;25.92;15.10;;;;;;;-5.56;73.38;98655.66;10415695;28;20036;-58
2022/01/24 03:42:07;;;;;;;;;;;;;;;-5.51;73.32;98654.34;10416132;28;20063;-58
2022/01/24 03:52:25;;;;;;;24.35;12.68;;;;;;;-5.58;73.84;98634.44;10404637;28;20078;-58
2022/01/24 03:57:26;;;;;;;;;;;;;;;-5.20;73.44;98670.19;10417039;28;20072;-58
2022/01/24 04:02:27;;;;;;;28.73;16.13;;;;;;;-5.12;73.75;98671.66;10416227;28;19956;-58
2022/01/24 04:07:26;;;;;;;42.17;23.13;;;;;;;-5.28;73.72;98668.75;10415741;28;20067;-58
2022/01/24 04:12:26;;;;;;;34.00;18.15;;;;;;;-5.30;72.48;98678.75;10422672;28;20056;-58
2022/01/24 04:17:36;;;;;;;25.30;13.38;;;;;;;-5.51;72.98;98680.53;10423855;28;20063;-58
2022/01/24 04:22:45;;;;;;;39.15;20.15;;;;;;;-5.54;72.66;98709.75;10423542;28;20070;-58
2022/01/24 04:27:44;;;;;;;23.98;13.02;;;;;;;-5.70;73.78;98726.28;10423621;28;20052;-58
2022/01/24 04:32:43;;;;;;;24.42;12.52;;;;;;;-6.02;74.62;98721.22;10423272;28;20032;-58
2022/01/24 04:37:42;;;;;;;31.80;17.48;;;;;;;-6.19;74.97;98724.06;10422703;28;20409;-58
2022/01/24 04:42:55;;;;;;;;;;;;;;;-6.24;74.88;98738.84;10423264;28;20067;-58
2022/01/24 04:53:49;;;;;;;37.92;20.17;;;;;;;-6.42;75.92;98763.50;10417924;28;20067;-58
2022/01/24 04:58:33;;;;;;;32.45;17.13;;;;;;;-6.53;76.92;98771.84;10421665;28;20494;-60
2022/01/24 05:03:32;;;;;;;23.10;11.48;;;;;;;-6.66;76.65;98744.72;10421719;28;20138;-61
2022/01/24 05:08:30;;;;;;;;;;;;;;;-6.38;77.03;98778.16;10421773;28;20395;-61
2022/01/24 05:24:05;;;;;;;25.58;13.77;;;;;;;-5.91;75.90;98791.19;10420638;28;20071;-60
2022/01/24 05:29:04;;;;;;;;;;;;;;;-5.81;75.51;98794.44;10420829;28;20056;-61
2022/01/24 05:34:03;;;;;;;26.30;14.23;;;;;;;-5.80;76.08;98807.22;10419685;28;19914;-61
2022/01/24 05:39:03;;;;;;;26.58;15.25;;;;;;;-6.10;75.72;98806.53;10418744;28;20032;-61
2022/01/24 05:44:02;;;;;;;21.30;9.88;;;;;;;-6.30;76.12;98822.56;10415810;28;20056;-61
2022/01/24 05:49:02;;;;;;;28.92;14.75;;;;;;;-6.87;77.28;98783.34;10395837;28;20593;-61
2022/01/24 05:54:02;;;;;;;34.65;16.50;;;;;;;-6.66;77.63;98839.75;10397641;28;20103;-61
2022/01/24 05:59:01;;;;;;;34.08;16.85;;;;;;;-6.67;78.39;98858.19;10419105;28;20060;-61
2022/01/24 06:04:00;;;;;;;31.15;15.35;;;;;;;-6.61;77.45;98848.59;10411490;28;20071;-61
2022/01/24 06:08:59;;;;;;;50.40;26.52;;;;;;;-6.38;77.69;98863.13;10393053;28;20338;-60
2022/01/24 06:13:58;;;;;;;69.05;38.08;;;;;;;-6.78;77.60;98789.16;10397461;28;20029;-60
2022/01/24 06:18:57;;;;;;;24.45;15.23;;;;;;;-6.25;78.24;98883.56;10376637;28;20064;-61
2022/01/24 06:23:56;;;;;;;39.72;21.75;;;;;;;-6.20;77.25;98873.84;10397376;28;20033;-61
2022/01/24 06:28:55;;;;;;;;;;;;;;;-6.10;77.05;98886.50;10403088;28;20529;-60
2022/01/24 06:33:54;;;;;;;53.50;25.88;;;;;;;-6.02;76.92;98890.50;10387329;28;20341;-61
2022/01/24 06:38:53;;;;;;;35.83;18.73;;;;;;;-5.99;76.08;98884.81;10403461;28;20044;-61
2022/01/24 06:43:52;;;;;;;31.00;18.40;;;;;;;-5.92;75.18;98893.06;10413408;28;20036;-61
2022/01/24 06:48:51;;;;;;;42.65;23.73;;;;;;;-5.78;74.61;98911.84;10414205;28;20027;-60
2022/01/24 06:53:50;;;;;;;31.80;18.52;;;;;;;-5.69;74.01;98916.75;10328222;28;20072;-61
2022/01/24 06:58:49;;;;;;;;;;;;;;;-5.64;74.59;98925.59;10334285;28;20482;-61
2022/01/24 07:03:48;;;;;;;33.03;19.60;;;;;;;-5.50;73.95;98929.25;10329632;28;20577;-61
2022/01/24 07:08:46;;;;;;;30.38;15.77;;;;;;;-5.55;74.85;98918.75;10334688;28;20108;-61
2022/01/24 07:13:45;;;;;;;26.13;13.40;;;;;;;-5.43;73.72;98940.75;10301484;28;20038;-61
2022/01/24 07:18:58;;;;;;;35.45;20.17;;;;;;;-5.39;73.14;98912.41;10334220;28;20052;-61
2022/01/24 07:23:57;;;;;;;30.40;17.73;;;;;;;-5.49;72.52;98900.69;10293546;28;20072;-61
2022/01/24 07:28:56;;;;;;;;;;;;;;;-4.91;71.34;98952.47;10293486;28;20187;-60
2022/01/24 07:33:55;;;;;;;38.65;20.25;;;;;;;-4.52;71.79;98962.28;10293788;28;19944;-61
2022/01/24 07:38:54;;;;;;;29.20;15.95;;;;;;;-4.75;71.95;98882.00;10293207;28;20058;-60
2022/01/24 07:43:54;;;;;;;32.65;16.33;;;;;;;-4.00;71.73;98961.19;10326735;28;20029;-58
2022/01/24 07:48:53;;;;;;;33.28;18.23;;;;;;;-3.74;71.16;98977.44;10333103;28;20500;-61
2022/01/24 07:53:52;;;;;;;35.55;19.42;;;;;;;-3.64;70.51;98930.84;10293049;28;20474;-58
2022/01/24 07:58:51;;;;;;;30.70;18.25;;;;;;;-3.27;69.80;98944.56;10293026;28;20125;-58
2022/01/24 08:03:51;;;;;;;35.33;19.52;;;;;;;-2.88;68.56;98971.00;10293752;28;20127;-58
2022/01/24 08:08:52;;;;;;;37.13;19.77;;;;;;;-2.61;67.98;98989.88;10331698;28;20136;-58
2022/01/24 08:13:52;;;;;;;24.35;13.77;;;;;;;-2.80;64.22;98958.88;10322580;28;20034;-58
2022/01/24 08:18:52;;;;;;;40.40;25.90;;;;;;;-2.91;64.50;98992.00;10317723;28;20363;-58
2022/01/24 08:23:51;;;;;;;26.80;15.40;;;;;;;-3.04;64.15;98993.53;10294486;28;20061;-58
2022/01/24 08:28:50;;;;;;;;;;;;;;;-3.18;62.97;98995.06;10292954;28;20068;-58
2022/01/24 08:33:49;;;;;;;23.80;13.75;;;;;;;-3.43;62.69;99010.19;10307737;28;19910;-60
2022/01/24 08:38:50;;;;;;;28.38;16.42;;;;;;;-3.55;62.69;99018.66;10292073;28;20500;-58
2022/01/24 08:43:57;;;;;;;32.83;21.50;;;;;;;-3.53;62.02;99018.75;10325010;28;20073;-58
2022/01/24 08:48:56;;;;;;;35.92;19.17;;;;;;;-3.65;60.46;99040.66;10325405;28;20065;-59
2022/01/24 08:53:55;;;;;;;22.67;13.20;;;;;;;-4.02;59.83;99002.38;10331871;28;20068;-58
2022/01/24 08:58:54;;;;;;;29.30;17.10;;;;;;;-3.64;61.00;99034.84;10321942;28;20041;-58
2022/01/24 09:03:53;;;;;;;44.75;19.40;;;;;;;-3.30;61.28;99029.72;10300495;28;20078;-59
2022/01/24 09:08:56;;;;;;;29.80;17.42;;;;;;;-3.09;60.92;99033.84;10337879;28;20155;-59
2022/01/24 09:13:56;;;;;;;18.13;11.98;;;;;;;-3.67;61.60;98953.44;10339041;28;20516;-59
2022/01/24 09:18:55;;;;;;;21.35;12.63;;;;;;;-3.54;60.66;98994.16;10335835;28;20088;-59
2022/01/24 09:23:55;;;;;;;23.63;13.10;;;;;;;-3.99;60.89;98908.84;10298021;28;20530;-60
2022/01/24 09:28:54;;;;;;;32.45;18.05;;;;;;;-3.73;60.64;98958.06;10300491;28;20060;-60
2022/01/24 09:33:54;;;;;;;29.92;17.25;;;;;;;-3.12;60.22;99041.22;10335985;28;20084;-60
2022/01/24 09:38:53;;;;;;;32.67;17.73;;;;;;;-3.23;59.30;99021.78;10337447;28;20068;-60
2022/01/24 09:43:52;;;;;;;26.75;17.23;;;;;;;-3.16;59.10;99040.09;10331920;28;20326;-60
2022/01/24 09:48:51;;;;;;;28.40;16.85;;;;;;;-3.27;58.90;99030.84;10337657;28;20104;-60
2022/01/24 09:53:51;;;;;;;29.55;15.27;;;;;;;-3.29;58.28;99029.84;10297060;28;20058;-60
2022/01/24 09:58:50;;;;;;;27.35;16.70;;;;;;;-3.27;57.79;99024.88;10336189;28;20057;-60
2022/01/24 10:04:11;;;;;;;25.38;14.90;;;;;;;-3.61;55.67;99017.31;10311628;28;20500;-60
2022/01/24 10:09:10;;;;;;;21.52;12.50;;;;;;;-4.62;57.88;98962.34;10322054;28;20057;-60
2022/01/24 10:19:26;;;;;;;21.27;13.02;;;;;;;-4.30;58.68;99024.72;10335403;28;20065;-58
2022/01/24 10:24:32;;;;;;;29.00;16.00;;;;;;;-4.36;59.18;99009.94;10336747;28;20025;-59
2022/01/24 10:29:30;;;;;;;29.38;16.63;;;;;;;-4.39;59.87;99019.84;10335208;28;20500;-59
2022/01/24 10:34:36;;;;;;;24.55;15.63;;;;;;;-4.40;57.89;99007.94;10324495;28;20041;-59
2022/01/24 10:44:36;;;;;;;26.85;17.67;;;;;;;-3.89;58.07;99012.69;10331559;28;20056;-59
2022/01/24 10:49:35;;;;;;;28.23;15.75;;;;;;;-3.78;57.45;99009.31;10329233;28;20049;-59
2022/01/24 10:54:34;;;;;;;27.52;16.10;;;;;;;-3.84;57.49;98991.09;10333133;28;20029;-59
2022/01/24 10:59:36;;;;;;;31.33;17.60;;;;;;;-3.85;57.54;99012.16;10330047;28;20500;-59
2022/01/24 11:04:34;;;;;;;22.63;13.57;;;;;;;-4.07;57.78;99022.31;10335103;28;20072;-59
2022/01/24 11:09:36;;;;;;;29.63;16.38;;;;;;;-4.03;58.07;99015.84;10308273;28;20026;-59
2022/01/24 11:14:36;;;;;;;28.25;18.75;;;;;;;-3.80;57.11;99010.84;10293152;28;20076;-59
2022/01/24 11:24:51;;;;;;;25.05;15.32;;;;;;;-3.55;54.26;99018.66;10305029;28;20053;-59
2022/01/24 11:29:52;;;;;;;23.23;14.52;;;;;;;-3.28;54.22;99016.38;10293563;28;20060;-59
2022/01/24 11:34:54;;;;;;;22.77;12.40;;;;;;;-3.40;54.25;99031.59;10293010;28;20065;-59
2022/01/24 11:39:54;;;;;;;25.77;15.10;;;;;;;-3.38;54.77;99026.63;10293005;28;20060;-59
2022/01/24 11:44:55;;;;;;;26.45;16.08;;;;;;;-3.39;55.23;99029.91;10324715;28;20069;-59
2022/01/24 11:49:54;;;;;;;27.33;16.83;;;;;;;-3.70;56.42;99036.91;10333682;28;20065;-59
2022/01/24 12:00:10;;;;;;;27.52;16.55;;;;;;;-3.47;58.96;99033.56;10333014;28;20076;-59
2022/01/24 12:05:10;;;;;;;27.38;17.48;;;;;;;-3.48;58.67;99020.00;10304512;28;20050;-59
2022/01/24 12:10:43;;;;;;;27.45;16.25;;;;;;;-3.85;59.02;99026.50;10318380;28;20065;-59
2022/01/24 12:15:43;;;;;;;26.02;15.80;;;;;;;-4.18;60.81;99029.13;10326194;28;20057;-59
2022/01/24 12:20:42;;;;;;;27.40;15.73;;;;;;;-4.25;60.60;99037.00;10332139;28;20075;-59
2022/01/24 12:26:02;;;;;;;24.00;14.13;;;;;;;-4.20;58.84;99028.09;10332105;28;20006;-59
2022/01/24 12:31:30;;;;;;;;;;;;;;;-4.58;67.32;99042.88;10333086;28;20460;-58
2022/01/24 12:36:46;;;;;;;26.65;15.50;;;;;;;-4.77;70.49;99045.59;10343010;28;19967;-58
2022/01/24 12:41:56;;;;;;;29.38;16.70;;;;;;;-5.04;70.22;99057.81;10339386;28;20071;-58
2022/01/24 12:46:55;;;;;;;;;;;;;;;-5.03;68.98;99066.28;10337991;28;20052;-58
2022/01/24 12:51:54;;;;;;;35.55;19.13;;;;;;;-4.89;69.54;99057.25;10339422;28;19996;-59
2022/01/24 12:57:07;;;;;;;26.40;13.63;;;;;;;-4.93;68.09;99073.00;10339351;28;20056;-59
2022/01/24 13:02:08;;;;;;;30.15;17.92;;;;;;;-4.98;70.90;99043.88;10338627;28;20064;-59
2022/01/24 13:07:09;;;;;;;41.15;21.60;;;;;;;-5.18;69.47;98962.19;10338587;28;20049;-58
2022/01/24 13:12:10;;;;;;;38.30;17.63;;;;;;;-4.62;70.11;99063.66;10338471;28;20072;-58
2022/01/24 13:22:48;;;;;;;21.33;11.48;;;;;;;-5.04;70.38;98983.53;10339295;28;20065;-59
2022/01/24 13:27:48;;;;;;;42.70;24.13;;;;;;;-4.65;69.64;99066.84;10338805;28;20053;-59
2022/01/24 13:32:51;;;;;;;26.33;16.08;;;;;;;-4.59;70.69;99074.00;10338703;28;20068;-58
2022/01/24 13:37:50;;;;;;;23.25;13.93;;;;;;;-4.70;72.10;99084.94;10338503;28;20076;-58
2022/01/24 13:42:49;;;;;;;24.98;13.82;;;;;;;-4.80;72.88;99087.50;10337301;28;20045;-58
2022/01/24 13:47:58;;;;;;;35.28;18.63;;;;;;;-5.14;73.80;99082.25;10334069;28;20029;-58
2022/01/24 13:52:57;;;;;;;;;;;;;;;-5.04;73.29;99103.38;10338474;28;20068;-58
2022/01/24 13:57:56;;;;;;;41.60;24.13;;;;;;;-5.09;72.64;99091.97;10337544;28;19913;-58
2022/01/24 14:03:25;;;;;;;54.17;26.83;;;;;;;-5.18;71.95;99110.59;10336929;28;20049;-58
2022/01/24 14:08:23;;;;;;;42.15;23.88;;;;;;;-5.20;69.53;99113.00;10339714;28;20064;-58
2022/01/24 14:13:24;;;;;;;38.45;22.40;;;;;;;-5.14;67.98;99108.44;10323506;28;20064;-58
2022/01/24 14:18:31;;;;;;;39.80;23.55;;;;;;;-5.13;66.49;99120.31;10296107;28;20066;-58
2022/01/24 14:23:43;;;;;;;33.33;19.42;;;;;;;-5.54;66.59;99044.47;10302780;28;20064;-59
2022/01/24 14:28:42;;;;;;;38.13;20.60;;;;;;;-5.25;66.44;99088.97;10332359;28;20146;-59
2022/01/24 14:33:43;;;;;;;37.58;22.55;;;;;;;-4.86;66.06;99130.94;10336159;28;20571;-59
2022/01/24 14:38:43;;;;;;;39.35;21.35;;;;;;;-4.87;65.96;99131.69;10335774;28;20072;-59
2022/01/24 14:49:10;;;;;;;30.50;17.95;;;;;;;-5.14;65.25;99143.88;10336321;28;20552;-61
2022/01/24 14:54:17;;;;;;;30.52;17.42;;;;;;;-5.33;65.76;99143.09;10334936;28;20056;-59
2022/01/24 14:59:16;;;;;;;35.90;19.15;;;;;;;-5.46;65.32;99124.38;10334988;28;20633;-60
2022/01/24 15:04:15;;;;;;;44.35;24.33;;;;;;;-5.36;65.10;99151.31;10334964;28;20496;-60
2022/01/24 15:09:15;;;;;;;;;;;;;;;-5.49;64.67;99151.94;10335273;28;20061;-59
2022/01/24 15:14:32;;;;;;;42.97;23.95;;;;;;;-6.30;65.08;99060.00;10334705;28;19956;-59
2022/01/24 15:25:20;;;;;;;39.25;22.50;;;;;;;-5.74;66.02;99171.75;10294375;28;20065;-59
2022/01/24 15:30:10;;;;;;;44.50;24.95;;;;;;;-5.86;65.93;99180.81;10293342;28;20054;-59
2022/01/24 15:35:12;;;;;;;52.95;27.08;;;;;;;-5.88;65.66;99188.25;10293448;28;20057;-59
2022/01/24 15:40:12;;;;;;;73.63;39.75;;;;;;;-6.32;66.15;99127.19;10293364;28;20091;-59
2022/01/24 15:50:23;;;;;;;74.43;40.42;;;;;;;-6.06;66.46;99186.66;10334331;28;20026;-59
2022/01/24 15:55:29;;;;;;;44.55;23.20;;;;;;;-6.09;67.06;99196.50;10333473;28;20065;-59
2022/01/24 16:00:34;;;;;;;37.92;20.67;;;;;;;-6.06;66.90;99200.94;10333475;28;20061;-59
2022/01/24 16:05:35;;;;;;;48.35;26.35;;;;;;;-6.40;66.74;99145.84;10333138;28;20080;-59
2022/01/24 16:10:35;;;;;;;67.13;32.00;;;;;;;-6.62;67.98;99127.03;10333269;28;20053;-59
2022/01/24 16:15:35;;;;;;;57.60;28.27;;;;;;;-6.35;68.03;99182.50;10332765;28;20064;-59
2022/01/24 16:20:40;;;;;;;68.15;36.40;;;;;;;-6.11;68.47;99213.19;10333008;28;20064;-59
2022/01/24 16:25:43;;;;;;;49.92;26.85;;;;;;;-6.12;67.76;99221.53;10332897;28;20060;-59
2022/01/24 16:30:46;;;;;;;70.20;39.88;;;;;;;-6.16;68.20;99222.00;10332471;28;20060;-59
2022/01/24 16:35:49;;;;;;;60.90;32.22;;;;;;;-6.18;67.83;99224.38;10331685;28;20065;-59
2022/01/24 16:40:57;;;;;;;57.60;29.30;;;;;;;-6.84;68.11;99157.06;10304473;28;20080;-60
2022/01/24 16:51:06;;;;;;;62.35;33.28;;;;;;;-6.47;68.47;99231.03;10372303;28;20067;-60
2022/01/24 16:56:05;;;;;;;66.07;36.78;;;;;;;-6.64;68.67;99221.94;10372794;28;20060;-60
2022/01/24 17:01:04;;;;;;;68.07;35.88;;;;;;;-6.69;68.94;99239.19;10372492;28;20097;-59
2022/01/24 17:06:04;;;;;;;78.05;41.60;;;;;;;-6.81;68.96;99233.94;10370345;28;20085;-59
2022/01/24 17:11:05;;;;;;;74.95;36.63;;;;;;;-6.88;69.23;99231.59;10372312;28;20068;-59
2022/01/24 17:16:06;;;;;;;82.35;40.03;;;;;;;-7.43;69.31;99150.97;10371412;28;20065;-59
2022/01/24 17:21:05;;;;;;;91.10;50.13;;;;;;;-7.82;70.21;99123.88;10377187;28;20064;-60
2022/01/24 17:26:04;;;;;;;;;;;;;;;-7.13;69.78;99240.25;10379980;28;20057;-59
2022/01/24 17:31:03;;;;;;;228.90;121.93;;;;;;;-7.55;70.89;99220.44;10378931;28;19952;-59
2022/01/24 17:36:03;;;;;;;;;;;;;;;-7.46;71.48;99251.53;10378273;28;20048;-60
2022/01/24 17:41:03;;;;;;;196.93;96.07;;;;;;;-7.63;71.81;99252.47;10378457;28;19960;-60
2022/01/24 17:46:02;;;;;;;210.35;111.78;;;;;;;-7.77;71.37;99267.94;10379051;28;20065;-60
2022/01/24 17:51:01;;;;;;;;;;;;;;;-7.85;72.03;99254.63;10379117;28;20060;-60
2022/01/24 17:56:00;;;;;;;211.30;106.87;;;;;;;-7.92;72.12;99257.31;10378118;28;19964;-60
2022/01/24 18:00:59;;;;;;;201.75;104.22;;;;;;;-7.98;72.08;99255.06;10378762;28;20067;-60
2022/01/24 18:05:58;;;;;;;;;;;;;;;-7.99;71.38;99270.06;10378074;28;20049;-60
2022/01/24 18:10:57;;;;;;;170.30;80.40;;;;;;;-9.03;71.14;99103.28;10376567;28;19916;-59
2022/01/24 18:15:57;;;;;;;;;;;;;;;-8.28;71.64;99270.66;10377995;28;20559;-59
2022/01/24 18:20:56;;;;;;;61.67;31.23;;;;;;;-8.41;71.45;99277.78;10375594;28;20411;-59
2022/01/24 18:25:56;;;;;;;61.92;30.55;;;;;;;-8.77;72.08;99240.72;10377257;28;20087;-59
2022/01/24 18:30:55;;;;;;;57.20;28.40;;;;;;;-8.66;71.29;99270.34;10376930;28;20071;-59
2022/01/24 18:35:56;;;;;;;57.83;28.77;;;;;;;-8.78;71.55;99281.72;10376802;28;20033;-59
2022/01/24 18:40:55;;;;;;;58.25;28.60;;;;;;;-9.10;70.68;99239.19;10377082;28;20492;-59
2022/01/24 18:45:55;;;;;;;54.97;29.10;;;;;;;-8.90;71.33;99299.03;10376344;28;20024;-59
2022/01/24 18:50:54;;;;;;;60.63;30.83;;;;;;;-9.02;71.43;99303.72;10375909;28;20491;-59
2022/01/24 18:55:53;;;;;;;85.30;44.00;;;;;;;-9.07;70.59;99297.34;10374708;28;20067;-61
2022/01/24 19:00:52;;;;;;;81.43;40.70;;;;;;;-9.14;71.27;99302.50;10376376;28;20025;-61
2022/01/24 19:05:51;;;;;;;79.82;41.63;;;;;;;-9.18;70.74;99295.38;10374717;28;20097;-61
2022/01/24 19:10:50;;;;;;;77.22;40.20;;;;;;;-9.40;71.05;99272.28;10343064;28;20044;-61
2022/01/24 19:15:51;;;;;;;105.32;48.72;;;;;;;-9.28;70.61;99313.69;10342738;28;20071;-61
2022/01/24 19:26:10;;;;;;;171.68;81.57;;;;;;;-9.55;71.62;99310.16;10353391;28;20071;-59
2022/01/24 19:31:11;;;;;;;167.10;79.97;;;;;;;-9.60;71.81;99313.84;10347848;28;20523;-59
2022/01/24 19:36:13;;;;;;;124.15;57.78;;;;;;;-9.74;72.07;99314.94;10344039;28;20069;-59
2022/01/24 19:41:13;;;;;;;81.03;39.58;;;;;;;-10.04;71.36;99267.47;10339379;28;20061;-59
2022/01/24 19:46:13;;;;;;;74.40;36.33;;;;;;;-9.74;71.71;99314.06;10374744;28;20064;-59
2022/01/24 19:51:14;;;;;;;70.70;34.40;;;;;;;-9.80;71.91;99318.44;10373109;28;20069;-59
2022/01/24 20:01:17;;;;;;;299.13;142.07;;;;;;;-9.96;71.94;99323.53;10372357;28;20060;-59
2022/01/24 20:06:16;;;;;;;80.32;37.38;;;;;;;-10.05;72.33;99317.56;10373307;28;20088;-59
2022/01/24 20:11:15;;;;;;;70.97;34.85;;;;;;;-10.56;72.74;99254.56;10373930;28;20060;-59
2022/01/24 20:16:14;;;;;;;67.20;33.05;;;;;;;-10.17;72.53;99310.53;10374723;28;20061;-59
2022/01/24 20:21:13;;;;;;;75.22;37.40;;;;;;;-10.25;72.35;99308.81;10372997;28;20064;-59
2022/01/24 20:26:12;;;;;;;194.75;92.75;;;;;;;-10.35;73.07;99323.66;10372026;28;20101;-59
2022/01/24 20:31:11;;;;;;;298.75;143.95;;;;;;;-10.55;73.89;99329.09;10371712;28;20037;-59
2022/01/24 20:36:10;;;;;;;231.10;104.53;;;;;;;-10.82;73.96;99320.41;10373681;28;20037;-59
2022/01/24 20:41:09;;;;;;;179.65;82.10;;;;;;;-11.51;74.26;99217.84;10372545;28;20025;-59
2022/01/24 20:46:08;;;;;;;154.40;69.03;;;;;;;-10.93;73.01;99338.41;10369638;28;20064;-59
2022/01/24 20:51:12;;;;;;;119.07;54.20;;;;;;;-10.92;73.42;99330.19;10372355;28;20043;-59
2022/01/24 20:56:13;;;;;;;135.05;59.45;;;;;;;-11.80;72.97;99196.25;10378833;28;20059;-59
2022/01/24 21:01:13;;;;;;;154.68;70.82;;;;;;;-11.03;73.05;99321.50;10379320;28;20072;-59
2022/01/24 21:06:12;;;;;;;150.18;68.35;;;;;;;-10.99;73.32;99340.28;10378290;28;20088;-59
2022/01/24 21:11:13;;;;;;;160.95;72.60;;;;;;;-11.20;73.46;99321.31;10338109;28;20061;-59
2022/01/24 21:16:14;;;;;;;139.68;59.90;;;;;;;-11.29;73.81;99311.22;10337837;28;20076;-59
2022/01/24 21:21:13;;;;;;;102.88;44.28;;;;;;;-11.25;74.12;99329.94;10336770;28;20056;-59
2022/01/24 21:26:12;;;;;;;106.13;49.17;;;;;;;-11.37;74.30;99332.06;10336914;28;20142;-59
2022/01/24 21:31:12;;;;;;;115.75;53.03;;;;;;;-11.73;73.90;99273.81;10335985;28;20469;-59
2022/01/24 21:36:15;;;;;;;119.88;51.78;;;;;;;-11.31;74.19;99341.84;10336661;28;20064;-59
2022/01/24 21:41:14;;;;;;;108.75;48.60;;;;;;;-11.46;73.76;99306.88;10361894;28;20060;-59
2022/01/24 21:46:14;;;;;;;111.00;51.35;;;;;;;-12.37;74.34;99153.44;10375351;28;20569;-59
2022/01/24 21:51:13;;;;;;;131.27;56.33;;;;;;;-11.92;74.73;99261.78;10376767;28;20492;-60
2022/01/24 21:56:12;;;;;;;116.85;54.20;;;;;;;-11.59;75.27;99351.34;10376068;28;20484;-59
2022/01/24 22:01:11;;;;;;;99.55;45.10;;;;;;;-12.10;74.64;99293.16;10377384;28;20065;-58
2022/01/24 22:06:10;;;;;;;115.88;52.30;;;;;;;-11.96;74.23;99344.75;10376135;28;20095;-59
2022/01/24 22:11:10;;;;;;;136.95;64.25;;;;;;;-12.19;75.44;99348.78;10372502;28;20064;-59
2022/01/24 22:16:09;;;;;;;211.27;91.93;;;;;;;-12.52;74.46;99311.75;10375507;28;20061;-59
2022/01/24 22:21:08;;;;;;;157.95;70.22;;;;;;;-12.39;73.91;99354.97;10375744;28;20091;-59
2022/01/24 22:26:24;;;;;;;140.60;62.83;;;;;;;-12.31;73.76;99350.81;10376540;28;20063;-59
2022/01/24 22:31:23;;;;;;;143.00;61.70;;;;;;;-12.28;74.27;99351.19;10375627;28;20060;-59
2022/01/24 22:36:24;;;;;;;205.27;95.75;;;;;;;-12.31;74.20;99345.81;10373773;28;20060;-59
2022/01/24 22:46:41;;;;;;;151.38;67.28;;;;;;;-12.28;75.17;99339.56;10334521;28;20072;-58
2022/01/24 22:51:40;;;;;;;137.23;59.85;;;;;;;-12.79;74.37;99247.94;10354981;28;20507;-59
2022/01/24 22:56:40;;;;;;;164.98;74.78;;;;;;;-12.86;73.27;99235.47;10376023;28;20072;-59
2022/01/24 23:01:42;;;;;;;206.13;87.97;;;;;;;-12.41;74.07;99336.38;10374191;28;20066;-59
2022/01/24 23:06:41;;;;;;;145.43;65.35;;;;;;;-12.90;73.37;99251.75;10376021;28;20072;-59
2022/01/24 23:11:40;;;;;;;147.73;61.63;;;;;;;-12.50;74.03;99311.22;10371918;28;20079;-59
2022/01/24 23:21:58;;;;;;;160.73;68.72;;;;;;;-12.46;73.64;99317.47;10371891;28;20100;-59
2022/01/24 23:27:06;;;;;;;209.43;86.78;;;;;;;-13.04;73.58;99245.91;10372276;28;20072;-59
2022/01/24 23:32:19;;;;;;;180.30;74.57;;;;;;;-12.72;74.06;99317.91;10371993;28;20543;-59
2022/01/24 23:42:40;;;;;;;164.30;73.40;;;;;;;-13.42;74.39;99200.00;10371252;28;20072;-59
2022/01/24 23:47:39;;;;;;;147.88;67.47;;;;;;;-12.77;73.77;99303.13;10374192;28;20821;-59
2022/01/24 23:52:38;;;;;;;168.15;70.85;;;;;;;-12.77;74.26;99308.13;10374208;28;20029;-59
2022/01/24 23:57:39;;;;;;;132.32;55.88;;;;;;;-12.90;74.12;99278.38;10374178;28;20033;-59
